Terminal Aerodrome Forecast
Issued by NWS

Home | Current Version | Previous Version | Text Only | Print | Product List | Glossary On
Versions: 1 2 3 4 5 6 7 8 9 10 11 12 13 14 15 16 17 18 19 20 21 22 23
913
FTUS41 KGYX 221120
TAFLEB
TAF
KLEB 221120Z 2212/2312 VRB03KT P6SM FEW080 BKN200
     FM221600 18004KT P6SM VCSH BKN050 OVC080
     FM221800 18004KT P6SM -SHRA BKN025 OVC040
     FM230400 19004KT P6SM OVC015=

USA.gov is the U.S. government's official web portal to all federal, state and local government web resources and services.